sensor_id;sensor_type;location;lat;lon;timestamp;pressure;altitude;pressure_sealevel;temperature
70389;BMP280;58659;49.050;8.530;2023-03-05T00:01:05;100299.00;;;3.09
70389;BMP280;58659;49.050;8.530;2023-03-05T00:03:31;100309.25;;;3.14
70389;BMP280;58659;49.050;8.530;2023-03-05T00:05:56;100302.94;;;3.20
70389;BMP280;58659;49.050;8.530;2023-03-05T00:08:21;100301.97;;;3.16
70389;BMP280;58659;49.050;8.530;2023-03-05T00:11:01;100305.88;;;3.13
70389;BMP280;58659;49.050;8.530;2023-03-05T00:13:26;100303.50;;;3.17
70389;BMP280;58659;49.050;8.530;2023-03-05T00:15:52;100316.41;;;3.17
70389;BMP280;58659;49.050;8.530;2023-03-05T00:18:18;100312.78;;;3.18
70389;BMP280;58659;49.050;8.530;2023-03-05T00:20:44;100308.28;;;3.23
70389;BMP280;58659;49.050;8.530;2023-03-05T00:23:10;100309.06;;;3.24
70389;BMP280;58659;49.050;8.530;2023-03-05T00:25:35;100314.13;;;3.29
70389;BMP280;58659;49.050;8.530;2023-03-05T00:28:01;100317.75;;;3.28
70389;BMP280;58659;49.050;8.530;2023-03-05T00:30:26;100312.53;;;3.33
70389;BMP280;58659;49.050;8.530;2023-03-05T00:32:52;100307.16;;;3.29
70389;BMP280;58659;49.050;8.530;2023-03-05T00:35:18;100314.81;;;3.34
70389;BMP280;58659;49.050;8.530;2023-03-05T00:37:43;100310.41;;;3.35
70389;BMP280;58659;49.050;8.530;2023-03-05T00:40:09;100307.38;;;3.33
70389;BMP280;58659;49.050;8.530;2023-03-05T00:42:34;100305.84;;;3.32
70389;BMP280;58659;49.050;8.530;2023-03-05T00:45:03;100317.63;;;3.38
70389;BMP280;58659;49.050;8.530;2023-03-05T00:47:29;100300.59;;;3.37
70389;BMP280;58659;49.050;8.530;2023-03-05T00:49:54;100306.25;;;3.39
70389;BMP280;58659;49.050;8.530;2023-03-05T00:52:19;100299.53;;;3.38
70389;BMP280;58659;49.050;8.530;2023-03-05T00:54:45;100305.19;;;3.40
70389;BMP280;58659;49.050;8.530;2023-03-05T00:57:10;100295.34;;;3.42
70389;BMP280;58659;49.050;8.530;2023-03-05T00:59:35;100297.06;;;3.47
70389;BMP280;58659;49.050;8.530;2023-03-05T01:02:01;100297.84;;;3.47
70389;BMP280;58659;49.050;8.530;2023-03-05T01:04:26;100288.25;;;3.48
70389;BMP280;58659;49.050;8.530;2023-03-05T01:06:51;100283.28;;;3.51
70389;BMP280;58659;49.050;8.530;2023-03-05T01:09:16;100291.31;;;3.50
70389;BMP280;58659;49.050;8.530;2023-03-05T01:11:42;100294.59;;;3.55
70389;BMP280;58659;49.050;8.530;2023-03-05T01:14:07;100291.50;;;3.53
70389;BMP280;58659;49.050;8.530;2023-03-05T01:16:33;100286.84;;;3.55
70389;BMP280;58659;49.050;8.530;2023-03-05T01:18:58;100274.41;;;3.57
70389;BMP280;58659;49.050;8.530;2023-03-05T01:21:23;100272.78;;;3.61
70389;BMP280;58659;49.050;8.530;2023-03-05T01:23:49;100278.03;;;3.56
70389;BMP280;58659;49.050;8.530;2023-03-05T01:26:14;100271.81;;;3.57
70389;BMP280;58659;49.050;8.530;2023-03-05T01:28:39;100277.94;;;3.61
70389;BMP280;58659;49.050;8.530;2023-03-05T01:31:08;100269.16;;;3.62
70389;BMP280;58659;49.050;8.530;2023-03-05T01:33:34;100252.56;;;3.63
70389;BMP280;58659;49.050;8.530;2023-03-05T01:35:59;100267.91;;;3.73
70389;BMP280;58659;49.050;8.530;2023-03-05T01:38:25;100260.31;;;3.63
70389;BMP280;58659;49.050;8.530;2023-03-05T01:40:50;100265.97;;;3.65
70389;BMP280;58659;49.050;8.530;2023-03-05T01:48:45;100262.91;;;3.63
70389;BMP280;58659;49.050;8.530;2023-03-05T01:51:11;100262.72;;;3.60
70389;BMP280;58659;49.050;8.530;2023-03-05T01:53:37;100259.50;;;3.68
70389;BMP280;58659;49.050;8.530;2023-03-05T01:56:02;100255.25;;;3.58
70389;BMP280;58659;49.050;8.530;2023-03-05T01:58:28;100261.69;;;3.61
70389;BMP280;58659;49.050;8.530;2023-03-05T02:00:54;100255.47;;;3.62
70389;BMP280;58659;49.050;8.530;2023-03-05T02:03:21;100251.91;;;3.58
70389;BMP280;58659;49.050;8.530;2023-03-05T02:05:47;100251.72;;;3.54
70389;BMP280;58659;49.050;8.530;2023-03-05T02:08:14;100248.56;;;3.57
70389;BMP280;58659;49.050;8.530;2023-03-05T02:10:43;100249.25;;;3.63
70389;BMP280;58659;49.050;8.530;2023-03-05T02:13:13;100240.25;;;3.60
70389;BMP280;58659;49.050;8.530;2023-03-05T02:15:39;100231.81;;;3.55
70389;BMP280;58659;49.050;8.530;2023-03-05T02:18:06;100247.50;;;3.58
70389;BMP280;58659;49.050;8.530;2023-03-05T02:23:16;100244.81;;;3.63
70389;BMP280;58659;49.050;8.530;2023-03-05T02:25:42;100245.41;;;3.60
70389;BMP280;58659;49.050;8.530;2023-03-05T02:30:38;100241.38;;;3.54
70389;BMP280;58659;49.050;8.530;2023-03-05T02:33:04;100239.06;;;3.53
70389;BMP280;58659;49.050;8.530;2023-03-05T02:35:29;100232.38;;;3.52
70389;BMP280;58659;49.050;8.530;2023-03-05T02:37:55;100225.97;;;3.49
70389;BMP280;58659;49.050;8.530;2023-03-05T02:40:21;100228.56;;;3.49
70389;BMP280;58659;49.050;8.530;2023-03-05T02:42:47;100224.84;;;3.55
70389;BMP280;58659;49.050;8.530;2023-03-05T02:45:13;100228.88;;;3.61
70389;BMP280;58659;49.050;8.530;2023-03-05T02:47:39;100217.56;;;3.57
70389;BMP280;58659;49.050;8.530;2023-03-05T02:50:05;100223.78;;;3.56
70389;BMP280;58659;49.050;8.530;2023-03-05T02:52:31;100216.50;;;3.58
70389;BMP280;58659;49.050;8.530;2023-03-05T02:54:56;100220.34;;;3.61
70389;BMP280;58659;49.050;8.530;2023-03-05T02:57:22;100211.66;;;3.57
70389;BMP280;58659;49.050;8.530;2023-03-05T02:59:47;100197.75;;;3.53
70389;BMP280;58659;49.050;8.530;2023-03-05T03:02:13;100198.34;;;3.50
70389;BMP280;58659;49.050;8.530;2023-03-05T03:04:38;100204.09;;;3.47
70389;BMP280;58659;49.050;8.530;2023-03-05T03:07:04;100199.09;;;3.50
70389;BMP280;58659;49.050;8.530;2023-03-05T03:09:29;100199.09;;;3.50
70389;BMP280;58659;49.050;8.530;2023-03-05T03:11:55;100197.38;;;3.46
70389;BMP280;58659;49.050;8.530;2023-03-05T03:14:21;100184.38;;;3.37
70389;BMP280;58659;49.050;8.530;2023-03-05T03:16:46;100186.69;;;3.38
70389;BMP280;58659;49.050;8.530;2023-03-05T03:19:12;100188.50;;;3.38
70389;BMP280;58659;49.050;8.530;2023-03-05T03:21:37;100183.03;;;3.39
70389;BMP280;58659;49.050;8.530;2023-03-05T03:24:03;100192.03;;;3.42
70389;BMP280;58659;49.050;8.530;2023-03-05T03:26:28;100177.13;;;3.39
70389;BMP280;58659;49.050;8.530;2023-03-05T03:28:55;100179.41;;;3.40
70389;BMP280;58659;49.050;8.530;2023-03-05T03:31:20;100173.00;;;3.38
70389;BMP280;58659;49.050;8.530;2023-03-05T03:33:46;100167.06;;;3.37
70389;BMP280;58659;49.050;8.530;2023-03-05T03:36:11;100167.25;;;3.41
70389;BMP280;58659;49.050;8.530;2023-03-05T03:38:37;100175.59;;;3.38
70389;BMP280;58659;49.050;8.530;2023-03-05T03:41:04;100170.88;;;3.40
70389;BMP280;58659;49.050;8.530;2023-03-05T03:43:31;100171.38;;;3.42
70389;BMP280;58659;49.050;8.530;2023-03-05T03:45:56;100165.25;;;3.38
70389;BMP280;58659;49.050;8.530;2023-03-05T03:48:21;100154.44;;;3.36
70389;BMP280;58659;49.050;8.530;2023-03-05T03:50:47;100161.69;;;3.34
70389;BMP280;58659;49.050;8.530;2023-03-05T03:53:12;100164.00;;;3.35
70389;BMP280;58659;49.050;8.530;2023-03-05T03:55:39;100147.44;;;3.23
70389;BMP280;58659;49.050;8.530;2023-03-05T03:58:05;100153.38;;;3.23
70389;BMP280;58659;49.050;8.530;2023-03-05T04:00:31;100152.59;;;3.23
70389;BMP280;58659;49.050;8.530;2023-03-05T04:02:56;100151.09;;;3.22
70389;BMP280;58659;49.050;8.530;2023-03-05T04:05:21;100143.94;;;3.19
70389;BMP280;58659;49.050;8.530;2023-03-05T04:07:47;100140.31;;;3.20
70389;BMP280;58659;49.050;8.530;2023-03-05T04:10:12;100147.44;;;3.23
70389;BMP280;58659;49.050;8.530;2023-03-05T04:12:37;100142.47;;;3.26
70389;BMP280;58659;49.050;8.530;2023-03-05T04:15:03;100134.44;;;3.28
70389;BMP280;58659;49.050;8.530;2023-03-05T04:17:31;100130.81;;;3.29
70389;BMP280;58659;49.050;8.530;2023-03-05T04:19:57;100131.38;;;3.26
70389;BMP280;58659;49.050;8.530;2023-03-05T04:22:22;100137.72;;;3.20
70389;BMP280;58659;49.050;8.530;2023-03-05T04:24:47;100133.31;;;3.20
70389;BMP280;58659;49.050;8.530;2023-03-05T04:27:13;100138.28;;;3.17
70389;BMP280;58659;49.050;8.530;2023-03-05T04:29:38;100137.09;;;3.23
70389;BMP280;58659;49.050;8.530;2023-03-05T04:32:04;100132.56;;;3.20
70389;BMP280;58659;49.050;8.530;2023-03-05T04:34:29;100122.22;;;3.20
70389;BMP280;58659;49.050;8.530;2023-03-05T04:36:54;100128.03;;;3.12
70389;BMP280;58659;49.050;8.530;2023-03-05T04:39:20;100129.84;;;3.11
70389;BMP280;58659;49.050;8.530;2023-03-05T04:41:46;100128.53;;;3.14
70389;BMP280;58659;49.050;8.530;2023-03-05T04:44:12;100136.19;;;3.19
70389;BMP280;58659;49.050;8.530;2023-03-05T04:46:37;100122.59;;;3.27
70389;BMP280;58659;49.050;8.530;2023-03-05T04:49:03;100121.25;;;3.29
70389;BMP280;58659;49.050;8.530;2023-03-05T04:51:28;100127.84;;;3.22
70389;BMP280;58659;49.050;8.530;2023-03-05T04:53:53;100125.28;;;3.22
70389;BMP280;58659;49.050;8.530;2023-03-05T04:56:19;100129.97;;;3.20
70389;BMP280;58659;49.050;8.530;2023-03-05T04:58:44;100114.94;;;3.22
70389;BMP280;58659;49.050;8.530;2023-03-05T05:01:09;100122.28;;;3.28
70389;BMP280;58659;49.050;8.530;2023-03-05T05:03:35;100119.03;;;3.23
70389;BMP280;58659;49.050;8.530;2023-03-05T05:06:00;100135.59;;;3.22
70389;BMP280;58659;49.050;8.530;2023-03-05T05:08:26;100129.84;;;3.25
70389;BMP280;58659;49.050;8.530;2023-03-05T05:11:03;100129.28;;;3.28
70389;BMP280;58659;49.050;8.530;2023-03-05T05:13:29;100123.44;;;3.36
70389;BMP280;58659;49.050;8.530;2023-03-05T05:15:55;100125.09;;;3.32
70389;BMP280;58659;49.050;8.530;2023-03-05T05:18:20;100117.13;;;3.28
70389;BMP280;58659;49.050;8.530;2023-03-05T05:20:46;100115.63;;;3.27
70389;BMP280;58659;49.050;8.530;2023-03-05T05:23:12;100110.34;;;3.32
70389;BMP280;58659;49.050;8.530;2023-03-05T05:25:38;100115.31;;;3.29
70389;BMP280;58659;49.050;8.530;2023-03-05T05:28:03;100101.44;;;3.25
70389;BMP280;58659;49.050;8.530;2023-03-05T05:30:29;100100.69;;;3.24
70389;BMP280;58659;49.050;8.530;2023-03-05T05:32:54;100106.03;;;3.28
70389;BMP280;58659;49.050;8.530;2023-03-05T05:35:19;100109.59;;;3.32
70389;BMP280;58659;49.050;8.530;2023-03-05T05:37:45;100111.31;;;3.36
70389;BMP280;58659;49.050;8.530;2023-03-05T05:40:10;100112.84;;;3.37
70389;BMP280;58659;49.050;8.530;2023-03-05T05:42:36;100105.28;;;3.27
70389;BMP280;58659;49.050;8.530;2023-03-05T05:45:01;100098.78;;;3.30
70389;BMP280;58659;49.050;8.530;2023-03-05T05:47:28;100103.13;;;3.21
70389;BMP280;58659;49.050;8.530;2023-03-05T05:49:54;100108.34;;;3.16
70389;BMP280;58659;49.050;8.530;2023-03-05T05:52:19;100096.22;;;3.16
70389;BMP280;58659;49.050;8.530;2023-03-05T05:54:45;100100.03;;;3.19
70389;BMP280;58659;49.050;8.530;2023-03-05T05:57:10;100100.03;;;3.19
70389;BMP280;58659;49.050;8.530;2023-03-05T05:59:36;100100.03;;;3.19
70389;BMP280;58659;49.050;8.530;2023-03-05T06:02:02;100099.38;;;3.13
70389;BMP280;58659;49.050;8.530;2023-03-05T06:04:28;100105.75;;;3.16
70389;BMP280;58659;49.050;8.530;2023-03-05T06:06:53;100100.13;;;3.14
70389;BMP280;58659;49.050;8.530;2023-03-05T06:09:19;100100.13;;;3.14
70389;BMP280;58659;49.050;8.530;2023-03-05T06:11:45;100100.03;;;3.19
70389;BMP280;58659;49.050;8.530;2023-03-05T06:14:11;100110.72;;;3.26
70389;BMP280;58659;49.050;8.530;2023-03-05T06:16:37;100109.69;;;3.27
70389;BMP280;58659;49.050;8.530;2023-03-05T06:19:03;100111.78;;;3.25
70389;BMP280;58659;49.050;8.530;2023-03-05T06:21:29;100099.91;;;3.24
70389;BMP280;58659;49.050;8.530;2023-03-05T06:23:55;100105.69;;;3.21
70389;BMP280;58659;49.050;8.530;2023-03-05T06:26:23;100101.34;;;3.30
70389;BMP280;58659;49.050;8.530;2023-03-05T06:28:48;100092.78;;;3.21
70389;BMP280;58659;49.050;8.530;2023-03-05T06:31:16;100101.31;;;3.21
70389;BMP280;58659;49.050;8.530;2023-03-05T06:33:42;100103.94;;;3.30
70389;BMP280;58659;49.050;8.530;2023-03-05T06:36:10;100096.97;;;3.30
70389;BMP280;58659;49.050;8.530;2023-03-05T06:38:36;100096.97;;;3.30
70389;BMP280;58659;49.050;8.530;2023-03-05T06:41:02;100095.63;;;3.33
70389;BMP280;58659;49.050;8.530;2023-03-05T06:43:33;100103.28;;;3.38
70389;BMP280;58659;49.050;8.530;2023-03-05T06:46:11;100099.06;;;3.42
70389;BMP280;58659;49.050;8.530;2023-03-05T06:48:36;100095.81;;;3.36
70389;BMP280;58659;49.050;8.530;2023-03-05T06:51:02;100088.94;;;3.32
70389;BMP280;58659;49.050;8.530;2023-03-05T06:53:28;100097.91;;;3.34
70389;BMP280;58659;49.050;8.530;2023-03-05T06:55:53;100100.09;;;3.41
70389;BMP280;58659;49.050;8.530;2023-03-05T06:58:19;100099.06;;;3.42
70389;BMP280;58659;49.050;8.530;2023-03-05T07:00:45;100101.25;;;3.35
70389;BMP280;58659;49.050;8.530;2023-03-05T07:03:11;100095.44;;;3.43
70389;BMP280;58659;49.050;8.530;2023-03-05T07:05:38;100092.06;;;3.43
70389;BMP280;58659;49.050;8.530;2023-03-05T07:08:03;100091.94;;;3.48
70389;BMP280;58659;49.050;8.530;2023-03-05T07:10:29;100099.41;;;3.49
70389;BMP280;58659;49.050;8.530;2023-03-05T07:12:54;100091.56;;;3.54
70389;BMP280;58659;49.050;8.530;2023-03-05T07:15:20;100090.59;;;3.64
70389;BMP280;58659;49.050;8.530;2023-03-05T07:17:45;100092.31;;;3.68
70389;BMP280;58659;49.050;8.530;2023-03-05T07:20:11;100088.06;;;3.72
70389;BMP280;58659;49.050;8.530;2023-03-05T07:22:37;100095.97;;;3.67
70389;BMP280;58659;49.050;8.530;2023-03-05T07:25:03;100084.44;;;3.73
70389;BMP280;58659;49.050;8.530;2023-03-05T07:27:29;100088.25;;;3.76
70389;BMP280;58659;49.050;8.530;2023-03-05T07:29:54;100087.31;;;3.72
70389;BMP280;58659;49.050;8.530;2023-03-05T07:32:19;100081.06;;;3.87
70389;BMP280;58659;49.050;8.530;2023-03-05T07:34:44;100077.31;;;3.93
70389;BMP280;58659;49.050;8.530;2023-03-05T07:37:10;100084.72;;;3.94
70389;BMP280;58659;49.050;8.530;2023-03-05T07:39:35;100080.31;;;3.95
70389;BMP280;58659;49.050;8.530;2023-03-05T07:42:00;100082.91;;;3.95
70389;BMP280;58659;49.050;8.530;2023-03-05T07:44:26;100085.50;;;3.95
70389;BMP280;58659;49.050;8.530;2023-03-05T07:46:51;100085.69;;;3.98
70389;BMP280;58659;49.050;8.530;2023-03-05T07:49:16;100085.94;;;4.10
70389;BMP280;58659;49.050;8.530;2023-03-05T07:51:41;100086.56;;;4.16
70389;BMP280;58659;49.050;8.530;2023-03-05T07:54:08;100093.72;;;4.19
70389;BMP280;58659;49.050;8.530;2023-03-05T07:56:34;100080.13;;;4.05
70389;BMP280;58659;49.050;8.530;2023-03-05T07:59:02;100088.81;;;4.09
70389;BMP280;58659;49.050;8.530;2023-03-05T08:01:29;100086.34;;;4.04
70389;BMP280;58659;49.050;8.530;2023-03-05T08:03:55;100077.06;;;4.03
70389;BMP280;58659;49.050;8.530;2023-03-05T08:06:20;100082.16;;;4.16
70389;BMP280;58659;49.050;8.530;2023-03-05T08:08:46;100078.28;;;4.27
70389;BMP280;58659;49.050;8.530;2023-03-05T08:11:13;100085.00;;;4.28
70389;BMP280;58659;49.050;8.530;2023-03-05T08:13:40;100070.81;;;4.26
70389;BMP280;58659;49.050;8.530;2023-03-05T08:16:08;100081.31;;;4.29
70389;BMP280;58659;49.050;8.530;2023-03-05T08:18:36;100079.06;;;4.37
70389;BMP280;58659;49.050;8.530;2023-03-05T08:21:02;100080.88;;;4.27
70389;BMP280;58659;49.050;8.530;2023-03-05T08:23:30;100082.22;;;4.25
70389;BMP280;58659;49.050;8.530;2023-03-05T08:25:56;100076.34;;;4.42
70389;BMP280;58659;49.050;8.530;2023-03-05T08:28:21;100071.31;;;4.37
70389;BMP280;58659;49.050;8.530;2023-03-05T08:30:47;100074.31;;;4.52
70389;BMP280;58659;49.050;8.530;2023-03-05T08:33:17;100077.19;;;4.59
70389;BMP280;58659;49.050;8.530;2023-03-05T08:35:45;100078.94;;;4.72
70389;BMP280;58659;49.050;8.530;2023-03-05T08:38:10;100075.75;;;4.76
70389;BMP280;58659;49.050;8.530;2023-03-05T08:40:36;100069.03;;;4.74
70389;BMP280;58659;49.050;8.530;2023-03-05T08:43:01;100068.16;;;4.79
70389;BMP280;58659;49.050;8.530;2023-03-05T08:45:28;100072.00;;;4.90
70389;BMP280;58659;49.050;8.530;2023-03-05T08:47:54;100071.06;;;4.95
70389;BMP280;58659;49.050;8.530;2023-03-05T08:50:21;100071.72;;;5.09
70389;BMP280;58659;49.050;8.530;2023-03-05T08:52:48;100072.34;;;5.06
70389;BMP280;58659;49.050;8.530;2023-03-05T08:55:13;100074.63;;;5.07
70389;BMP280;58659;49.050;8.530;2023-03-05T08:57:38;100072.34;;;5.14
70389;BMP280;58659;49.050;8.530;2023-03-05T09:00:04;100067.97;;;5.24
70389;BMP280;58659;49.050;8.530;2023-03-05T09:02:31;100062.75;;;5.32
70389;BMP280;58659;49.050;8.530;2023-03-05T09:04:56;100065.66;;;5.56
70389;BMP280;58659;49.050;8.530;2023-03-05T09:07:22;100063.34;;;5.72
70389;BMP280;58659;49.050;8.530;2023-03-05T09:09:47;100065.81;;;5.60
70389;BMP280;58659;49.050;8.530;2023-03-05T09:12:12;100073.44;;;5.82
70389;BMP280;58659;49.050;8.530;2023-03-05T09:14:40;100062.59;;;5.97
70389;BMP280;58659;49.050;8.530;2023-03-05T09:17:06;100069.88;;;6.04
70389;BMP280;58659;49.050;8.530;2023-03-05T09:19:31;100056.38;;;6.36
70389;BMP280;58659;49.050;8.530;2023-03-05T09:21:57;100059.00;;;6.66
70389;BMP280;58659;49.050;8.530;2023-03-05T09:24:22;100060.03;;;6.94
70389;BMP280;58659;49.050;8.530;2023-03-05T09:26:47;100054.56;;;6.87
70389;BMP280;58659;49.050;8.530;2023-03-05T09:29:13;100048.06;;;6.81
70389;BMP280;58659;49.050;8.530;2023-03-05T09:31:38;100046.03;;;6.57
70389;BMP280;58659;49.050;8.530;2023-03-05T09:34:05;100045.44;;;6.60
70389;BMP280;58659;49.050;8.530;2023-03-05T09:36:31;100048.06;;;6.51
70389;BMP280;58659;49.050;8.530;2023-03-05T09:38:57;100044.56;;;6.77
70389;BMP280;58659;49.050;8.530;2023-03-05T09:44:05;100040.41;;;6.84
70389;BMP280;58659;49.050;8.530;2023-03-05T09:46:51;100042.81;;;7.10
70389;BMP280;58659;49.050;8.530;2023-03-05T09:50:02;100037.72;;;7.34
70389;BMP280;58659;49.050;8.530;2023-03-05T09:55:24;100035.78;;;7.31
70389;BMP280;58659;49.050;8.530;2023-03-05T09:57:55;100035.00;;;7.10
70389;BMP280;58659;49.050;8.530;2023-03-05T10:00:28;100028.22;;;6.97
70389;BMP280;58659;49.050;8.530;2023-03-05T10:02:59;100033.06;;;7.07
70389;BMP280;58659;49.050;8.530;2023-03-05T10:08:15;100033.81;;;7.28
70389;BMP280;58659;49.050;8.530;2023-03-05T10:10:46;100020.56;;;7.21
70389;BMP280;58659;49.050;8.530;2023-03-05T10:13:37;100028.06;;;7.02
70389;BMP280;58659;49.050;8.530;2023-03-05T10:19:09;100029.13;;;7.22
70389;BMP280;58659;49.050;8.530;2023-03-05T10:21:49;100029.88;;;7.22
70389;BMP280;58659;49.050;8.530;2023-03-05T10:24:32;100024.19;;;7.08
70389;BMP280;58659;49.050;8.530;2023-03-05T10:27:05;100024.94;;;6.88
70389;BMP280;58659;49.050;8.530;2023-03-05T10:29:47;100017.72;;;6.73
70389;BMP280;58659;49.050;8.530;2023-03-05T10:40:19;100014.56;;;6.58
70389;BMP280;58659;49.050;8.530;2023-03-05T10:43:26;100007.84;;;6.66
70389;BMP280;58659;49.050;8.530;2023-03-05T10:45:56;100009.34;;;6.67
70389;BMP280;58659;49.050;8.530;2023-03-05T10:54:30;99993.34;;;6.56
70389;BMP280;58659;49.050;8.530;2023-03-05T10:57:18;99989.75;;;6.70
70389;BMP280;58659;49.050;8.530;2023-03-05T11:02:29;99980.41;;;6.77
70389;BMP280;58659;49.050;8.530;2023-03-05T11:04:55;99973.13;;;6.91
70389;BMP280;58659;49.050;8.530;2023-03-05T11:10:16;99971.47;;;7.08
70389;BMP280;58659;49.050;8.530;2023-03-05T11:12:42;99965.84;;;7.06
70389;BMP280;58659;49.050;8.530;2023-03-05T11:18:03;99963.88;;;7.02
70389;BMP280;58659;49.050;8.530;2023-03-05T11:20:35;99955.66;;;6.80
70389;BMP280;58659;49.050;8.530;2023-03-05T11:25:28;99958.00;;;6.73
70389;BMP280;58659;49.050;8.530;2023-03-05T11:27:55;99954.88;;;6.58
70389;BMP280;58659;49.050;8.530;2023-03-05T11:30:33;99954.25;;;6.41
70389;BMP280;58659;49.050;8.530;2023-03-05T11:33:16;99940.50;;;6.40
70389;BMP280;58659;49.050;8.530;2023-03-05T11:35:44;99942.28;;;6.48
70389;BMP280;58659;49.050;8.530;2023-03-05T11:38:22;99943.72;;;6.58
70389;BMP280;58659;49.050;8.530;2023-03-05T11:40:50;99942.72;;;6.50
70389;BMP280;58659;49.050;8.530;2023-03-05T11:43:18;99940.75;;;6.47
70389;BMP280;58659;49.050;8.530;2023-03-05T11:45:47;99929.38;;;6.31
70389;BMP280;58659;49.050;8.530;2023-03-05T11:48:24;99942.56;;;6.26
70389;BMP280;58659;49.050;8.530;2023-03-05T11:50:57;99936.75;;;5.91
70389;BMP280;58659;49.050;8.530;2023-03-05T11:53:33;99941.63;;;5.93
70389;BMP280;58659;49.050;8.530;2023-03-05T11:56:11;99935.38;;;5.94
70389;BMP280;58659;49.050;8.530;2023-03-05T12:01:23;99927.91;;;6.01
70389;BMP280;58659;49.050;8.530;2023-03-05T12:03:50;99921.59;;;6.02
70389;BMP280;58659;49.050;8.530;2023-03-05T12:06:37;99916.41;;;6.02
70389;BMP280;58659;49.050;8.530;2023-03-05T12:14:55;99900.63;;;6.24
70389;BMP280;58659;49.050;8.530;2023-03-05T12:17:33;99894.88;;;6.39
70389;BMP280;58659;49.050;8.530;2023-03-05T12:20:04;99897.91;;;6.41
70389;BMP280;58659;49.050;8.530;2023-03-05T12:22:35;99895.50;;;6.36
70389;BMP280;58659;49.050;8.530;2023-03-05T12:27:48;99880.31;;;5.97
70389;BMP280;58659;49.050;8.530;2023-03-05T12:32:57;99872.59;;;5.80
70389;BMP280;58659;49.050;8.530;2023-03-05T12:42:55;99859.34;;;6.10
70389;BMP280;58659;49.050;8.530;2023-03-05T12:53:18;99844.06;;;6.09
70389;BMP280;58659;49.050;8.530;2023-03-05T13:01:00;99831.31;;;6.45
70389;BMP280;58659;49.050;8.530;2023-03-05T13:03:29;99846.63;;;6.38
70389;BMP280;58659;49.050;8.530;2023-03-05T13:05:57;99834.00;;;6.37
70389;BMP280;58659;49.050;8.530;2023-03-05T13:08:34;99818.09;;;6.38
70389;BMP280;58659;49.050;8.530;2023-03-05T13:13:31;99827.00;;;6.49
70389;BMP280;58659;49.050;8.530;2023-03-05T13:15:57;99821.06;;;6.28
70389;BMP280;58659;49.050;8.530;2023-03-05T13:18:27;99822.25;;;6.10
70389;BMP280;58659;49.050;8.530;2023-03-05T13:23:27;99824.56;;;6.03
70389;BMP280;58659;49.050;8.530;2023-03-05T13:26:13;99815.41;;;6.05
70389;BMP280;58659;49.050;8.530;2023-03-05T13:28:41;99806.03;;;6.01
70389;BMP280;58659;49.050;8.530;2023-03-05T13:31:17;99807.75;;;5.88
70389;BMP280;58659;49.050;8.530;2023-03-05T13:33:50;99820.22;;;5.95
70389;BMP280;58659;49.050;8.530;2023-03-05T13:36:19;99814.66;;;6.05
70389;BMP280;58659;49.050;8.530;2023-03-05T13:38:45;99812.25;;;6.21
70389;BMP280;58659;49.050;8.530;2023-03-05T13:46:12;99793.84;;;6.34
70389;BMP280;58659;49.050;8.530;2023-03-05T13:48:38;99798.16;;;6.30
70389;BMP280;58659;49.050;8.530;2023-03-05T13:51:03;99792.44;;;6.25
70389;BMP280;58659;49.050;8.530;2023-03-05T13:53:31;99791.19;;;6.22
70389;BMP280;58659;49.050;8.530;2023-03-05T13:56:03;99791.44;;;6.08
70389;BMP280;58659;49.050;8.530;2023-03-05T14:01:32;99784.88;;;6.11
70389;BMP280;58659;49.050;8.530;2023-03-05T14:06:48;99775.38;;;6.15
70389;BMP280;58659;49.050;8.530;2023-03-05T14:09:28;99773.63;;;6.07
70389;BMP280;58659;49.050;8.530;2023-03-05T14:12:05;99775.50;;;5.98
70389;BMP280;58659;49.050;8.530;2023-03-05T14:14:37;99771.19;;;6.02
70389;BMP280;58659;49.050;8.530;2023-03-05T14:20:27;99767.75;;;5.98
70389;BMP280;58659;49.050;8.530;2023-03-05T14:22:56;99767.53;;;6.03
70389;BMP280;58659;49.050;8.530;2023-03-05T14:30:49;99753.63;;;6.07
70389;BMP280;58659;49.050;8.530;2023-03-05T14:33:23;99745.78;;;6.16
70389;BMP280;58659;49.050;8.530;2023-03-05T14:35:50;99746.94;;;6.06
70389;BMP280;58659;49.050;8.530;2023-03-05T14:38:26;99737.31;;;6.07
70389;BMP280;58659;49.050;8.530;2023-03-05T14:40:52;99736.56;;;6.06
70389;BMP280;58659;49.050;8.530;2023-03-05T14:43:17;99739.75;;;6.03
70389;BMP280;58659;49.050;8.530;2023-03-05T14:45:43;99730.63;;;5.85
70389;BMP280;58659;49.050;8.530;2023-03-05T14:48:10;99723.41;;;5.70
70389;BMP280;58659;49.050;8.530;2023-03-05T14:53:17;99706.69;;;5.80
70389;BMP280;58659;49.050;8.530;2023-03-05T14:55:46;99712.81;;;5.96
70389;BMP280;58659;49.050;8.530;2023-03-05T14:58:17;99707.97;;;5.94
70389;BMP280;58659;49.050;8.530;2023-03-05T15:00:44;99708.47;;;5.88
70389;BMP280;58659;49.050;8.530;2023-03-05T15:03:11;99692.03;;;5.84
70389;BMP280;58659;49.050;8.530;2023-03-05T15:05:37;99694.44;;;5.89
70389;BMP280;58659;49.050;8.530;2023-03-05T15:08:03;99695.06;;;6.06
70389;BMP280;58659;49.050;8.530;2023-03-05T15:10:28;99684.34;;;6.08
70389;BMP280;58659;49.050;8.530;2023-03-05T15:12:54;99679.81;;;6.05
70389;BMP280;58659;49.050;8.530;2023-03-05T15:15:20;99684.31;;;5.96
70389;BMP280;58659;49.050;8.530;2023-03-05T15:17:47;99682.25;;;6.01
70389;BMP280;58659;49.050;8.530;2023-03-05T15:22:45;99672.16;;;5.88
70389;BMP280;58659;49.050;8.530;2023-03-05T15:25:11;99666.44;;;5.82
70389;BMP280;58659;49.050;8.530;2023-03-05T15:27:37;99667.81;;;5.80
70389;BMP280;58659;49.050;8.530;2023-03-05T15:30:04;99660.75;;;5.68
70389;BMP280;58659;49.050;8.530;2023-03-05T15:32:29;99668.75;;;5.54
70389;BMP280;58659;49.050;8.530;2023-03-05T15:34:55;99658.28;;;5.51
70389;BMP280;58659;49.050;8.530;2023-03-05T15:37:21;99658.16;;;5.47
70389;BMP280;58659;49.050;8.530;2023-03-05T15:39:48;99650.69;;;5.46
70389;BMP280;58659;49.050;8.530;2023-03-05T15:42:13;99643.22;;;5.44
70389;BMP280;58659;49.050;8.530;2023-03-05T15:44:39;99649.91;;;5.45
70389;BMP280;58659;49.050;8.530;2023-03-05T15:47:05;99644.75;;;5.45
70389;BMP280;58659;49.050;8.530;2023-03-05T15:49:31;99633.88;;;5.52
70389;BMP280;58659;49.050;8.530;2023-03-05T15:51:56;99625.91;;;5.36
70389;BMP280;58659;49.050;8.530;2023-03-05T15:54:21;99635.66;;;5.39
70389;BMP280;58659;49.050;8.530;2023-03-05T15:56:47;99625.53;;;5.46
70389;BMP280;58659;49.050;8.530;2023-03-05T15:59:12;99628.31;;;5.41
70389;BMP280;58659;49.050;8.530;2023-03-05T16:01:41;99623.25;;;5.45
70389;BMP280;58659;49.050;8.530;2023-03-05T16:04:08;99627.66;;;5.44